RJTH(METAR)
08/22 17:00
RJTH 220800Z 22006KT 9999 FEW013 FEW030 BKNXXX 29/26 Q1014 RMK
A2996=
戻る
トップページへ戻る
IMOC Co,.Ltd.